Mt. Lincoln Summit Weather observations

Data are for 10 minute period ending at time listed.
 Day   Time   Solar   Ave.   Ave.  Ave.  Vector    Max.   Stn.  
  of    of     Rad.   Air    Rel.  Wind   Wind     Wind   Baro.  
Year   Day            Temp.  Hum.  Speed  Dir.     Gust   Pres. 
2015   (PST)   W/m2    F      %     mph   deg.      mph    mb    
-----------------------------------------------------------------
 240   17:00  999.0    64   46.4    11    271.6    19.8   599.40
 240   17:10  999.0    63   46.3    16    255.8    29.8   599.30
 240   17:20  999.0    62   46.3    14    276.9    30.5   598.20
 240   17:30  999.0    62   46.4     9    263.9    21.8   595.50
 240   17:40  999.0    62   46.2    12    274.4    28.2   597.70
 240   17:50  999.0    61   46.2    11    279.0    22.2   596.80
 240   18:00  999.0    60   46.1    16    257.3    32.1   596.80
 240   18:10  999.0    60   46.1    12    267.2    25.4   594.40
 240   18:20  999.0    59   46.0    17    259.4    31.5   596.20
 240   18:30  999.0    58   46.0    20    246.9    43.8   598.80
 240   18:40  999.0    58   46.0    20    249.2    29.6   596.80
 240   18:50  999.0    57   46.0    21    243.9    30.1   594.90
 240   19:00  999.0    57   46.0    27    238.7    36.5   597.30
 240   19:10  999.0    56   46.0    20    246.7    28.7   597.00
 240   19:20  999.0    56   45.9    19    247.5    35.1   592.70
 240   19:30  999.0    56   45.8    17    254.8    27.0   591.80
 240   19:40  999.0    55   45.8    18    249.1    25.5   593.00
 240   19:50  999.0    55   45.8    18    253.2    25.0   593.50
 240   20:00  999.0    54   45.7    18    248.7    27.1   591.90
 240   20:10  999.0    54   45.6    20    240.4    24.7   591.00
 240   20:20  999.0    54   45.6    24    238.3    34.1   592.50
 240   20:30  999.0    53   45.6    25    237.6    31.2   591.60
 240   20:40  999.0    53   45.6    26    238.2    31.6   590.20
 240   20:50  999.0    53   45.6    27    236.9    33.4   586.70
 240   21:00  999.0    53   45.6    32    231.8    39.0   585.20
 240   21:10  999.0    52   45.5    31    233.4    39.2   588.00
 240   21:20  999.0    52   45.5    24    242.8    32.6   586.90
 240   21:30  999.0    52   45.5    22    245.7    28.2   588.30
 240   21:40  999.0    52   45.5    22    239.8    27.6   587.90
 240   21:50  999.0    51   45.5    27    236.1    34.7   587.00
 240   22:00  999.0    51   45.5    33    231.6    42.8   588.40
 240   22:10  999.0    51   45.5    38    228.1    42.5   587.40
 240   22:20  999.0    51   45.5    37    227.1    45.8   586.70
 240   22:30  999.0    51   45.4    37    230.0    44.2   591.10
 240   22:40  999.0    51   45.5    38    231.5    44.2   590.70
 240   22:50  999.0    51   45.4    32    239.5    41.6   585.70
 240   23:00  999.0    50   45.4    33    236.8    43.7   586.00
 240   23:10  999.0    50   45.4    32    237.8    42.7   586.10
 240   23:20  999.0    50   45.4    30    239.3    41.0   581.30
 240   23:30  999.0    50   45.4    29    239.5    36.2   580.50
 240   23:40  999.0    50   45.4    31    237.3    39.1   579.60
 240   23:50  999.0    50   45.4    30    238.1    37.4   583.20
 241    0:00  999.0    50   45.4    28    240.8    37.7   581.70
 241    0:10  999.0    50   45.4    27    239.5    36.0   583.40
 241    0:20  999.0    50   45.4    30    237.0    38.3   582.60
 241    0:30  999.0    50   45.4    32    239.3    42.1   580.80
 241    0:40  999.0    50   45.4    30    238.0    35.6   579.50
 241    0:50  999.0    50   45.4    36    231.9    45.6   582.60
 241    1:00  999.0    50   45.4    39    230.7    48.7   586.10
 241    1:10  999.0    50   45.4    39    230.2    45.3   580.40
 241    1:20  999.0    49   45.3    39    228.6    46.0   581.30
 241    1:30  999.0    49   45.3    40    226.3    48.5   585.60
 241    1:40  999.0    49   45.3    38    227.7    46.5   581.20
 241    1:50  999.0    49   45.3    40    224.4    46.9   577.10
 241    2:00  999.0    49   45.3    38    228.8    49.8   577.10
 241    2:10  999.0    49   45.3    35    235.5    45.1   575.10
 241    2:20  999.0    48   45.3    34    236.3    43.6   581.40
 241    2:30  999.0    48   45.2    34    238.2    43.1   580.40
 241    2:40  999.0    48   45.2    40    229.7    50.2   577.90
 241    2:50  999.0    48   45.2    42    227.7    52.8   575.90
 241    3:00  999.0    48   45.2    45    226.2    56.0   577.70
 241    3:10  999.0    48   45.2    46    224.6    57.8   579.00
 241    3:20  999.0    48   45.2    46    224.2    58.0   583.30
 241    3:30  999.0    47   45.2    48    224.3    57.9   582.30
 241    3:40  999.0    47   45.2    48    226.1    58.7   585.60
 241    3:50  999.0    47   45.2    47    230.1    64.8   584.80
 241    4:00  999.0    47   45.1    44    232.1    56.7   581.70
 241    4:10  999.0    47   45.2    45    231.3    55.3   583.00
 241    4:20  999.0    47   45.1    45    232.4    58.4   578.90
 241    4:30  999.0    46   45.1    42    234.6    51.8   582.20
 241    4:40  999.0    46   45.1    43    234.3    59.9   580.10
 241    4:50  999.0    46   45.0    38    236.5    54.7   577.60
 241    5:00  999.0    46   45.0    31    241.2    49.7   576.20
 241    5:10  999.0    45   44.9    38    238.2    53.1   575.80
 241    5:20  999.0    45   45.0    35    237.9    42.6   574.70
 241    5:30  999.0    45   45.0    34    240.8    45.3   575.80
 241    5:40  999.0    45   45.0    34    242.6    49.0   577.80
 241    5:50  999.0    44   44.9    34    239.8    46.5   579.30
 241    6:00  999.0    44   44.8    36    237.3    46.5   576.20
 241    6:10  999.0    44   44.8    41    235.0    49.5   577.30
 241    6:20  999.0    44   44.8    37    238.3    49.5   579.60
 241    6:30  999.0    44   44.9    41    236.3    51.8   584.70
 241    6:40  999.0    44   44.9    41    234.8    51.1   578.80
 241    6:50  999.0    44   44.8    36    237.1    45.5   574.90
 241    7:00  999.0    44   44.8    38    235.4    47.5   574.60
 241    7:10  999.0    44   44.8    40    235.6    49.7   579.30
 241    7:20  999.0    44   44.8    44    230.8    55.0   580.90
 241    7:30  999.0    44   44.7    42    231.6    52.5   580.20
 241    7:40  999.0    44   44.8    43    235.8    54.0   580.10
 241    7:50  999.0    45   44.9    36    236.8    49.8   574.40
 241    8:00  999.0    46   44.9    36    237.6    45.9   579.10
 241    8:10  999.0    46   45.0    36    234.9    53.6   574.10
 241    8:20  999.0    47   44.9    37    234.6    54.1   578.70
 241    8:30  999.0    48   44.9    41    229.9    50.2   576.20
 241    8:40  999.0    48   44.9    44    226.6    56.7   576.80
 241    8:50  999.0    48   44.9    43    226.6    56.5   577.80
 241    9:00  999.0    49   45.0    36    228.7    47.7   578.70
 241    9:10  999.0    49   45.1    35    231.5    44.8   576.50
 241    9:20  999.0    50   45.2    34    231.2    46.0   577.90
 241    9:30  999.0    50   45.2    30    235.3    42.5   577.90
 241    9:40  999.0    50   45.2    30    236.7    43.0   579.30
 241    9:50  999.0    51   45.2    26    240.9    34.2   577.90
 241   10:00  999.0    51   45.4    25    238.5    34.0   580.80
 241   10:10  999.0    52   45.3    18    255.6    37.4   577.10
 241   10:20  999.0    51   45.3    25    247.5    38.3   578.00
 241   10:30  999.0    52   45.4    32    240.4    45.2   581.80
 241   10:40  999.0    52   45.5    28    244.7    41.5   582.20
 241   10:50  999.0    52   45.3    35    233.8    57.2   587.00
 241   11:00  999.0    52   45.5    28    242.6    44.4   584.30
 241   11:10  999.0    53   45.6    28    240.9    45.3   581.70
 241   11:20  999.0    53   45.4    29    241.4    60.2   581.90
 241   11:30  999.0    52   45.4    37    246.8    52.4   583.20
 241   11:40  999.0    52   45.6    39    241.0    60.5   586.20
 241   11:50  999.0    53   45.6    38    236.3    59.6   587.10
 241   12:00  999.0    52   45.5    38    241.4    56.0   585.10
 241   12:10  999.0    52   45.6    43    236.7    71.2   591.40
 241   12:20  999.0    52   45.5    44    239.6    72.4   589.00
 241   12:30  999.0    52   45.7    43    244.2    63.0   590.10
 241   12:40  999.0    53   45.7    47    228.7    70.6   590.10
 241   12:50  999.0    54   45.8    38    236.9    57.7   592.00
 241   13:00  999.0    55   45.9    37    237.1    51.5   591.70
 241   13:10  999.0    55   45.7    35    239.7    56.3   587.90
 241   13:20  999.0    55   45.7    33    253.4    57.2   586.60
 241   13:30  999.0    54   45.7    38    242.1    66.4   587.30
 241   13:40  999.0    55   45.9    38    248.1    63.2   588.70
 241   13:50  999.0    55   45.8    40    248.1    70.0   591.50
 241   14:00  999.0    55   45.9    36    243.8    55.8   589.10
 241   14:10  999.0    55   45.9    36    240.4    59.0   592.10
 241   14:20  999.0    55   45.8    42    238.2    64.7   591.80
 241   14:30  999.0    55   45.8    48    236.5    83.6   594.60
 241   14:40  999.0    55   45.9    40    239.0    71.6   594.70
 241   14:50  999.0    54   45.8    41    244.5    70.4   594.90
 241   15:00  999.0    55   45.9    39    244.7    69.2   589.40
 241   15:10  999.0    55   45.8    36    239.3    70.0   589.30
 241   15:20  999.0    55   45.9    40    241.5    65.5   592.00
 241   15:30  999.0    54   45.8    40    238.9    78.8   593.40
 241   15:40  999.0    54   45.9    24    251.2    46.3   588.80
 241   15:50  999.0    54   45.7    34    253.7    55.6   590.30
 241   16:00  999.0    54   45.9    26    249.6    44.7   587.00
 241   16:10  999.0    54   45.7    30    246.8    50.6   589.20
 241   16:20  999.0    53   45.7    31    248.2    55.3   587.80
 241   16:30  999.0    53   45.8    32    250.4    49.7   588.80
 241   16:40  999.0    53   45.7    33    246.5    59.8   588.40
 241   16:50  999.0    52   45.8    33    245.4    47.0   588.40

Return to Mt. Lincoln graphs page.


Western Regional Climate Center,wrcc@dri.edu